Yelizovo, Russia
Current Conditions -  °F | °C
As of 6:00 PM on Friday 31 Oct 2014 (Local Time) from UHPP Reporting Station
Scattered Clouds Scattered Clouds  
Wind Chill: 28°   Ceiling: Unl
Heat Index: 37°   Visibility: 6mi
Dew Point: 18°   Wind: 18mph
Humidity: 45%   Direction: 280°W
Pressure: 29.47"   Gusts: NA
Location:  53.18°N, 158.38°E
Report Text: UHPP 310600Z 28008MPS 9999 SCT033 03/M08 Q0998 NOSIG RMK MTOBSC QFE745/0993 SC070
Loading
Personal Weather Stations






























Interactive Weather Map
Tropical Storm Tracking
New forecast layout! Learn more

10-Day Weather Forecast

Advertisements
Track Severe Weather on mobile